Time;durP1;ratioP1;P1;durP2;ratioP2;P2;SDS_P1;SDS_P2;PMS_P1;PMS_P2;Temp;Humidity;BMP_temperature;BMP_pressure;BME280_temperature;BME280_humidity;BME280_pressure;Samples;Min_cycle;Max_cycle;Signal;HPM_P1;HPM_P2
2023/09/01 00:00:59;;;;;;;7.90;2.55;;;17.80;99.90;;;;;;5046155;28;20174;-65
2023/09/01 00:03:24;;;;;;;2.30;2.10;;;17.90;99.90;;;;;;5048634;28;20189;-67
2023/09/01 00:05:50;;;;;;;3.00;2.70;;;18.10;99.90;;;;;;5046200;28;20197;-69
2023/09/01 00:08:15;;;;;;;2.73;2.47;;;17.90;99.90;;;;;;5048529;28;20717;-66
2023/09/01 00:10:41;;;;;;;3.53;2.33;;;18.00;99.90;;;;;;5046732;28;20181;-66
2023/09/01 00:13:07;;;;;;;3.03;2.57;;;17.90;99.90;;;;;;5049085;28;20193;-67
2023/09/01 00:15:33;;;;;;;3.13;2.07;;;18.00;99.90;;;;;;5048416;28;20213;-65
2023/09/01 00:17:59;;;;;;;5.95;2.65;;;17.80;99.90;;;;;;5045809;28;20224;-67
2023/09/01 00:20:24;;;;;;;3.53;2.10;;;17.80;99.90;;;;;;5047077;28;20238;-65
2023/09/01 00:22:50;;;;;;;3.17;2.43;;;17.70;99.90;;;;;;5046836;28;20185;-64
2023/09/01 00:25:15;;;;;;;2.63;2.43;;;17.70;99.90;;;;;;5047350;28;20186;-63
2023/09/01 00:27:41;;;;;;;3.90;2.40;;;17.70;99.90;;;;;;5050187;28;20657;-65
2023/09/01 00:30:08;;;;;;;3.47;2.53;;;18.00;99.90;;;;;;5049575;28;20213;-64
2023/09/01 00:32:34;;;;;;;2.53;2.13;;;17.70;99.90;;;;;;5046999;28;20233;-64
2023/09/01 00:35:00;;;;;;;2.63;2.10;;;17.70;99.90;;;;;;5044392;28;20217;-66
2023/09/01 00:37:26;;;;;;;2.92;2.60;;;17.70;99.90;;;;;;5048139;28;20726;-66
2023/09/01 00:39:51;;;;;;;5.77;2.70;;;17.50;99.90;;;;;;5045180;28;20189;-65
2023/09/01 00:42:17;;;;;;;2.37;2.17;;;17.70;99.90;;;;;;5040336;28;20323;-66
2023/09/01 00:44:43;;;;;;;3.83;2.00;;;17.70;99.90;;;;;;5050993;28;20189;-65
2023/09/01 00:47:08;;;;;;;2.60;1.97;;;17.70;99.90;;;;;;5048656;28;20537;-66
2023/09/01 00:49:38;;;;;;;2.43;1.93;;;17.70;99.90;;;;;;5049223;28;20196;-65
2023/09/01 00:52:04;;;;;;;3.50;2.60;;;17.80;99.90;;;;;;5047184;28;20298;-65
2023/09/01 00:54:31;;;;;;;2.58;2.30;;;17.80;99.90;;;;;;5048725;28;20197;-67
2023/09/01 00:56:56;;;;;;;2.25;2.05;;;17.70;99.90;;;;;;5047406;28;20208;-65
2023/09/01 00:59:23;;;;;;;4.13;2.40;;;17.70;99.90;;;;;;5042282;28;20701;-68
2023/09/01 01:01:49;;;;;;;2.38;2.17;;;17.70;99.90;;;;;;5047216;28;20451;-67
2023/09/01 01:04:17;;;;;;;2.50;2.30;;;17.70;99.90;;;;;;5044930;28;20189;-65
2023/09/01 01:06:48;;;;;;;2.60;2.40;;;17.80;99.90;;;;;;5046760;28;20192;-65
2023/09/01 01:09:24;;;;;;;2.40;2.20;;;17.80;99.90;;;;;;5046198;28;20551;-66
2023/09/01 01:12:32;;;;;;;3.60;2.17;;;17.80;99.90;;;;;;5044311;28;20272;-66
2023/09/01 01:15:01;;;;;;;2.42;2.15;;;18.00;99.90;;;;;;5007093;28;20207;-67
2023/09/01 01:17:28;;;;;;;3.10;2.50;;;17.90;99.90;;;;;;5046418;28;20221;-66
2023/09/01 01:20:13;;;;;;;2.38;2.17;;;17.90;99.90;;;;;;5043319;28;20213;-65
2023/09/01 01:22:43;;;;;;;2.50;2.30;;;17.90;99.90;;;;;;5046663;28;20269;-66
2023/09/01 01:25:10;;;;;;;2.25;2.05;;;17.90;99.90;;;;;;5045122;28;20174;-67
2023/09/01 01:27:37;;;;;;;2.35;1.90;;;17.90;99.90;;;;;;5045330;28;20216;-68
2023/09/01 01:30:05;;;;;;;2.85;2.30;;;17.90;99.90;;;;;;5047635;28;20181;-64
2023/09/01 01:32:32;;;;;;;2.33;2.13;;;18.00;99.90;;;;;;5045486;28;20189;-69
2023/09/01 01:35:20;;;;;;;2.30;2.10;;;18.00;99.90;;;;;;5046079;28;20196;-65
2023/09/01 01:37:58;;;;;;;3.58;2.50;;;18.20;99.90;;;;;;5044794;28;20736;-65
2023/09/01 01:40:27;;;;;;;3.03;2.35;;;17.80;99.90;;;;;;5041438;28;20190;-64
2023/09/01 01:42:55;;;;;;;4.80;2.40;;;17.80;99.90;;;;;;5046523;28;20182;-67
2023/09/01 01:45:23;;;;;;;3.92;2.25;;;17.80;99.90;;;;;;5047400;28;20216;-67
2023/09/01 01:47:51;;;;;;;2.30;2.10;;;17.70;99.90;;;;;;5046368;28;20724;-65
2023/09/01 01:50:17;;;;;;;2.70;2.35;;;17.80;99.90;;;;;;5043863;28;20324;-66
2023/09/01 01:52:43;;;;;;;1.80;1.70;;;18.10;99.90;;;;;;5046761;28;20709;-65
2023/09/01 01:55:09;;;;;;;2.27;1.90;;;17.70;99.90;;;;;;5042082;28;20189;-66
2023/09/01 01:57:36;;;;;;;2.92;1.90;;;17.70;99.90;;;;;;5045120;28;20232;-65
2023/09/01 02:00:03;;;;;;;2.17;1.95;;;17.60;99.90;;;;;;5045712;28;20173;-67
2023/09/01 02:02:29;;;;;;;2.67;2.10;;;17.60;99.90;;;;;;5046613;28;20178;-66
2023/09/01 02:04:54;;;;;;;2.20;1.73;;;18.00;99.90;;;;;;5045251;28;20255;-67
2023/09/01 02:07:20;;;;;;;3.10;2.10;;;17.80;99.90;;;;;;5044791;28;20321;-65
2023/09/01 02:09:46;;;;;;;1.97;1.77;;;17.90;99.90;;;;;;5046760;28;20548;-65
2023/09/01 02:12:11;;;;;;;2.43;2.00;;;17.70;99.90;;;;;;5045578;28;20276;-67
2023/09/01 02:14:37;;;;;;;2.80;1.60;;;17.90;99.90;;;;;;5045720;28;20871;-67
2023/09/01 02:17:03;;;;;;;2.90;2.00;;;17.80;99.90;;;;;;5046312;28;20212;-68
2023/09/01 02:19:29;;;;;;;5.03;1.80;;;17.80;99.90;;;;;;5048011;28;20323;-64
2023/09/01 02:21:55;;;;;;;2.80;2.05;;;17.90;99.90;;;;;;5051044;28;20193;-65
2023/09/01 02:24:20;;;;;;;1.70;1.60;;;17.90;99.90;;;;;;5049538;28;20853;-68
2023/09/01 02:26:46;;;;;;;3.23;2.00;;;18.00;99.90;;;;;;5048338;28;20267;-67
2023/09/01 02:29:12;;;;;;;2.03;1.93;;;18.00;99.90;;;;;;5051246;28;20271;-67
2023/09/01 02:31:38;;;;;;;1.60;1.50;;;18.00;99.90;;;;;;5050574;28;20181;-66
2023/09/01 02:34:05;;;;;;;3.75;1.90;;;18.10;99.90;;;;;;5050500;28;20440;-64
2023/09/01 02:36:35;;;;;;;4.60;2.28;;;18.60;99.90;;;;;;5047477;28;20217;-66
2023/09/01 02:39:04;;;;;;;1.92;1.80;;;18.00;99.90;;;;;;5049822;28;20251;-67
2023/09/01 02:41:30;;;;;;;2.55;1.75;;;18.00;99.90;;;;;;5048184;28;20185;-64
2023/09/01 02:43:57;;;;;;;2.10;1.90;;;18.00;99.90;;;;;;5050361;28;20189;-65
2023/09/01 02:46:23;;;;;;;2.03;1.80;;;18.00;99.90;;;;;;5050943;28;20470;-65
2023/09/01 02:48:49;;;;;;;2.50;1.90;;;18.00;99.90;;;;;;5046095;28;20280;-68
2023/09/01 02:51:15;;;;;;;3.05;2.00;;;18.00;99.90;;;;;;5045834;28;20436;-64
2023/09/01 02:53:41;;;;;;;3.93;1.80;;;18.00;99.90;;;;;;5050564;28;20185;-65
2023/09/01 02:56:06;;;;;;;2.40;2.07;;;18.10;99.90;;;;;;5046412;28;20533;-66
2023/09/01 02:58:32;;;;;;;2.30;1.87;;;17.90;99.90;;;;;;5048082;28;20222;-65
2023/09/01 03:00:58;;;;;;;2.80;2.23;;;18.00;99.90;;;;;;5048730;28;20201;-65
2023/09/01 03:03:24;;;;;;;3.10;1.70;;;18.00;99.90;;;;;;5048646;28;20204;-65
2023/09/01 03:05:51;;;;;;;2.38;2.15;;;17.90;99.90;;;;;;5048503;28;20198;-66
2023/09/01 03:08:23;;;;;;;3.17;1.70;;;17.90;99.90;;;;;;5048805;28;20391;-66
2023/09/01 03:10:51;;;;;;;1.80;1.70;;;18.00;99.90;;;;;;5047773;28;20273;-66
2023/09/01 03:13:17;;;;;;;2.15;1.85;;;17.90;99.90;;;;;;5052104;28;20658;-66
2023/09/01 03:15:43;;;;;;;5.37;1.90;;;18.00;99.90;;;;;;5047666;28;20216;-66
2023/09/01 03:18:11;;;;;;;2.10;1.73;;;17.90;99.90;;;;;;5045079;28;20854;-67
2023/09/01 03:20:40;;;;;;;1.85;1.70;;;18.20;99.90;;;;;;5046426;28;20197;-65
2023/09/01 03:23:06;;;;;;;2.72;2.00;;;18.30;99.90;;;;;;5048569;28;20525;-67
2023/09/01 03:25:31;;;;;;;2.30;2.10;;;18.10;99.90;;;;;;5049023;28;20186;-65
2023/09/01 03:27:57;;;;;;;2.40;1.77;;;18.10;99.90;;;;;;5048693;28;20217;-65
2023/09/01 03:30:24;;;;;;;2.27;1.87;;;18.10;99.90;;;;;;5049140;28;20200;-66
2023/09/01 03:32:50;;;;;;;1.70;1.58;;;18.30;99.90;;;;;;5047393;28;20193;-66
2023/09/01 03:35:15;;;;;;;2.47;2.27;;;18.10;99.90;;;;;;5047933;28;20191;-65
2023/09/01 03:37:41;;;;;;;2.63;1.80;;;18.20;99.90;;;;;;5048085;28;20223;-69
2023/09/01 03:40:09;;;;;;;2.27;1.70;;;18.20;99.90;;;;;;5045622;28;20745;-65
2023/09/01 03:42:35;;;;;;;2.40;1.77;;;18.10;99.90;;;;;;5049141;28;20189;-65
2023/09/01 03:45:02;;;;;;;3.50;1.70;;;18.10;99.90;;;;;;5049001;28;20272;-66
2023/09/01 03:47:28;;;;;;;2.10;1.90;;;18.20;99.90;;;;;;5047074;28;20315;-70
2023/09/01 03:49:53;;;;;;;3.00;1.93;;;18.40;99.90;;;;;;5046691;28;21013;-66
2023/09/01 03:52:19;;;;;;;2.40;1.70;;;17.90;99.90;;;;;;5048875;28;20182;-66
2023/09/01 03:54:45;;;;;;;2.30;1.90;;;18.00;99.90;;;;;;5048754;28;20207;-67
2023/09/01 03:57:10;;;;;;;1.93;1.73;;;18.00;99.90;;;;;;5044183;28;20221;-67
2023/09/01 03:59:36;;;;;;;2.00;1.90;;;18.00;99.90;;;;;;5044291;28;20182;-66
2023/09/01 04:02:02;;;;;;;1.67;1.57;;;18.10;99.90;;;;;;5047524;28;20647;-67
2023/09/01 04:04:29;;;;;;;3.67;2.33;;;18.00;99.90;;;;;;5046856;28;21470;-65
2023/09/01 04:06:55;;;;;;;2.10;1.90;;;17.90;99.90;;;;;;5051214;28;20759;-70
2023/09/01 04:09:22;;;;;;;2.28;1.85;;;18.00;99.90;;;;;;5047129;28;20229;-65
2023/09/01 04:11:48;;;;;;;1.77;1.50;;;18.00;99.90;;;;;;5045333;28;20193;-67
2023/09/01 04:14:13;;;;;;;1.97;1.67;;;18.00;99.90;;;;;;5046762;28;20196;-68
2023/09/01 04:16:40;;;;;;;3.83;1.90;;;18.00;99.90;;;;;;5046827;28;20213;-65
2023/09/01 04:19:05;;;;;;;4.72;2.13;;;18.10;99.90;;;;;;5043881;28;21084;-66
2023/09/01 04:21:31;;;;;;;1.80;1.70;;;17.90;99.90;;;;;;5046007;28;20177;-66
2023/09/01 04:23:57;;;;;;;2.17;1.97;;;17.90;99.90;;;;;;5048061;28;20223;-68
2023/09/01 04:26:22;;;;;;;2.60;1.77;;;17.90;99.90;;;;;;5047840;28;20692;-66
2023/09/01 04:28:48;;;;;;;1.80;1.70;;;17.90;99.90;;;;;;5046198;28;20455;-65
2023/09/01 04:31:32;;;;;;;2.03;1.70;;;18.00;99.90;;;;;;5047843;28;20197;-65
2023/09/01 04:33:58;;;;;;;4.05;1.73;;;17.90;99.90;;;;;;5045507;28;20169;-65
2023/09/01 04:36:24;;;;;;;4.43;1.50;;;17.90;99.90;;;;;;5047392;28;20183;-67
2023/09/01 04:38:50;;;;;;;2.47;1.73;;;17.90;99.90;;;;;;5040733;28;20201;-68
2023/09/01 04:41:16;;;;;;;2.08;1.88;;;17.90;99.90;;;;;;5045684;28;20192;-69
2023/09/01 04:43:42;;;;;;;1.95;1.50;;;17.90;99.90;;;;;;5048043;28;20277;-69
2023/09/01 04:46:08;;;;;;;2.20;1.52;;;17.90;99.90;;;;;;5043545;28;20179;-66
2023/09/01 04:48:34;;;;;;;1.98;1.30;;;17.90;99.90;;;;;;5043314;28;20213;-67
2023/09/01 04:51:02;;;;;;;1.85;1.50;;;18.00;99.90;;;;;;5044695;28;20193;-66
2023/09/01 04:53:28;;;;;;;1.75;1.50;;;18.00;99.90;;;;;;5044114;28;20696;-68
2023/09/01 04:55:54;;;;;;;2.00;1.80;;;18.00;99.90;;;;;;5040492;28;20190;-67
2023/09/01 04:58:20;;;;;;;2.30;1.60;;;18.10;99.90;;;;;;5046401;28;20625;-67
2023/09/01 05:00:46;;;;;;;1.90;1.80;;;18.50;99.90;;;;;;5043884;28;20448;-67
2023/09/01 05:03:11;;;;;;;2.57;1.70;;;18.10;99.90;;;;;;5046200;28;20475;-64
2023/09/01 05:05:37;;;;;;;3.33;1.80;;;18.20;99.90;;;;;;5044533;28;20209;-68
2023/09/01 05:08:03;;;;;;;2.55;1.45;;;18.20;99.90;;;;;;5045704;28;20213;-66
2023/09/01 05:10:29;;;;;;;3.00;1.70;;;18.20;99.90;;;;;;5043789;28;20199;-66
2023/09/01 05:12:55;;;;;;;1.60;1.50;;;18.20;99.90;;;;;;5047270;28;20193;-66
2023/09/01 05:15:20;;;;;;;1.80;1.70;;;18.30;99.90;;;;;;5047506;28;21055;-67
2023/09/01 05:17:46;;;;;;;1.77;1.40;;;18.30;99.90;;;;;;5042774;28;20259;-70
2023/09/01 05:20:12;;;;;;;2.50;1.90;;;18.40;99.90;;;;;;5041568;28;20826;-67
2023/09/01 05:22:37;;;;;;;2.53;1.80;;;18.40;99.90;;;;;;5047134;28;20264;-67
2023/09/01 05:25:04;;;;;;;2.53;1.40;;;18.60;99.90;;;;;;5043196;28;20463;-68
2023/09/01 05:27:29;;;;;;;2.05;1.85;;;18.30;99.90;;;;;;5044161;28;20311;-66
2023/09/01 05:29:55;;;;;;;1.70;1.60;;;18.40;99.90;;;;;;5044995;28;20618;-69
2023/09/01 05:32:23;;;;;;;2.30;1.50;;;18.40;99.90;;;;;;5045061;28;20207;-66
2023/09/01 05:34:48;;;;;;;1.83;1.70;;;18.40;99.90;;;;;;5040587;28;20197;-71
2023/09/01 05:37:14;;;;;;;1.50;1.40;;;18.50;99.90;;;;;;5036981;28;20221;-72
2023/09/01 05:39:41;;;;;;;2.17;1.73;;;18.40;99.90;;;;;;5039994;28;20642;-70
2023/09/01 05:42:08;;;;;;;8.05;1.98;;;18.50;99.90;;;;;;5043208;28;20440;-69
2023/09/01 05:44:34;;;;;;;2.67;1.80;;;18.60;99.90;;;;;;5045635;28;20235;-70
2023/09/01 05:46:59;;;;;;;3.40;1.52;;;18.50;99.90;;;;;;5046324;28;20205;-70
2023/09/01 05:49:25;;;;;;;1.60;1.50;;;18.90;99.90;;;;;;5043724;28;20185;-69
2023/09/01 05:51:51;;;;;;;2.30;1.47;;;18.60;99.90;;;;;;5044076;28;20217;-70
2023/09/01 05:54:20;;;;;;;1.60;1.50;;;18.50;99.90;;;;;;5048822;28;20186;-71
2023/09/01 05:56:46;;;;;;;2.63;2.05;;;18.40;99.90;;;;;;5044108;28;20244;-70
2023/09/01 05:59:12;;;;;;;4.77;2.17;;;18.30;99.90;;;;;;5048876;28;20208;-70
2023/09/01 06:01:38;;;;;;;2.33;1.47;;;18.30;99.90;;;;;;5052899;28;20440;-71
2023/09/01 06:04:04;;;;;;;1.50;1.40;;;18.30;99.90;;;;;;5046315;28;20439;-70
2023/09/01 06:06:34;;;;;;;1.85;1.58;;;18.40;99.90;;;;;;5047754;28;20189;-70
2023/09/01 06:09:00;;;;;;;3.92;1.40;;;18.50;99.90;;;;;;5049494;28;21727;-71
2023/09/01 06:11:26;;;;;;;3.70;2.00;;;18.60;99.90;;;;;;5045456;28;20194;-71
2023/09/01 06:13:52;;;;;;;2.33;1.80;;;18.60;99.90;;;;;;5050053;28;20608;-69
2023/09/01 06:16:17;;;;;;;1.60;1.47;;;18.60;99.90;;;;;;5047461;28;20268;-69
2023/09/01 06:18:43;;;;;;;3.33;1.63;;;18.50;99.90;;;;;;5048147;28;20842;-70
2023/09/01 06:21:10;;;;;;;1.73;1.30;;;18.40;99.90;;;;;;5043882;28;20191;-71
2023/09/01 06:23:40;;;;;;;1.67;1.58;;;18.40;99.90;;;;;;5046700;28;20199;-69
2023/09/01 06:26:06;;;;;;;3.05;1.70;;;18.40;99.90;;;;;;5045588;28;20189;-70
2023/09/01 06:28:32;;;;;;;2.00;1.60;;;18.20;99.90;;;;;;5050430;28;20205;-66
2023/09/01 06:30:58;;;;;;;2.20;1.70;;;18.20;99.90;;;;;;5046030;28;20714;-67
2023/09/01 06:33:24;;;;;;;1.53;1.30;;;17.90;99.90;;;;;;5047871;28;20255;-67
2023/09/01 06:35:49;;;;;;;1.77;1.30;;;18.10;99.90;;;;;;5045663;28;21061;-68
2023/09/01 06:38:15;;;;;;;2.20;1.60;;;18.00;99.90;;;;;;5047705;28;20444;-67
2023/09/01 06:40:40;;;;;;;1.80;1.70;;;18.00;99.90;;;;;;5048361;28;20178;-66
2023/09/01 06:43:06;;;;;;;2.70;1.57;;;17.90;99.90;;;;;;5049125;28;20186;-67
2023/09/01 06:45:32;;;;;;;1.93;1.50;;;18.00;99.90;;;;;;5048928;28;20185;-67
2023/09/01 06:47:58;;;;;;;1.40;1.30;;;17.90;99.90;;;;;;5047337;28;20201;-66
2023/09/01 06:50:24;;;;;;;1.70;1.17;;;17.90;99.90;;;;;;5045422;28;20193;-67
2023/09/01 06:52:51;;;;;;;1.20;1.00;;;18.20;99.90;;;;;;5046914;28;20220;-67
2023/09/01 06:55:17;;;;;;;1.40;1.30;;;18.10;99.90;;;;;;5041781;28;20447;-69
2023/09/01 06:57:43;;;;;;;2.22;1.50;;;18.20;99.90;;;;;;5047805;28;20213;-70
2023/09/01 07:00:09;;;;;;;1.30;1.20;;;18.40;99.90;;;;;;5046446;28;20204;-69
2023/09/01 07:02:35;;;;;;;2.15;1.25;;;18.60;99.90;;;;;;5042809;28;20428;-68
2023/09/01 07:05:02;;;;;;;4.20;1.53;;;18.60;99.90;;;;;;5042347;28;20949;-68
2023/09/01 07:07:27;;;;;;;1.38;1.02;;;18.70;99.90;;;;;;5046547;28;20209;-70
2023/09/01 07:09:53;;;;;;;2.70;1.30;;;19.20;99.90;;;;;;5046558;28;20185;-69
2023/09/01 07:12:19;;;;;;;1.73;1.10;;;18.70;99.90;;;;;;5045136;28;20189;-70
2023/09/01 07:14:44;;;;;;;2.77;1.33;;;18.70;99.90;;;;;;5047538;28;20209;-68
2023/09/01 07:17:13;;;;;;;6.23;2.70;;;18.70;99.90;;;;;;5050846;28;20208;-71
2023/09/01 07:19:39;;;;;;;2.03;1.85;;;18.70;99.90;;;;;;5045829;28;20213;-71
2023/09/01 07:22:07;;;;;;;2.50;1.13;;;18.70;99.90;;;;;;5050398;28;20209;-70
2023/09/01 07:24:33;;;;;;;4.32;2.58;;;18.60;99.90;;;;;;5046180;28;20439;-69
2023/09/01 07:26:59;;;;;;;2.53;1.50;;;18.60;99.90;;;;;;5045990;28;20202;-70
2023/09/01 07:29:24;;;;;;;6.50;1.70;;;18.60;99.90;;;;;;5043047;28;20642;-72
2023/09/01 07:31:50;;;;;;;4.70;1.70;;;18.60;99.90;;;;;;5048206;28;20216;-69
2023/09/01 07:34:16;;;;;;;5.80;1.87;;;18.50;99.90;;;;;;5045988;28;20277;-70
2023/09/01 07:36:41;;;;;;;4.53;1.10;;;18.50;99.90;;;;;;5044785;28;20270;-69
2023/09/01 07:39:07;;;;;;;3.20;2.53;;;18.70;99.90;;;;;;5048128;28;20296;-68
2023/09/01 07:41:33;;;;;;;3.13;2.00;;;18.70;99.90;;;;;;5050699;28;20259;-68
2023/09/01 07:43:59;;;;;;;2.35;1.65;;;18.90;99.90;;;;;;5049876;28;20260;-67
2023/09/01 07:46:25;;;;;;;1.47;1.37;;;18.90;99.90;;;;;;5046482;28;20273;-75
2023/09/01 07:48:50;;;;;;;1.30;1.20;;;19.10;99.90;;;;;;5045430;28;20565;-72
2023/09/01 07:51:16;;;;;;;1.50;1.40;;;19.30;99.90;;;;;;5048689;28;20185;-70
2023/09/01 07:53:41;;;;;;;4.20;1.70;;;19.30;99.90;;;;;;5048888;28;20178;-70
2023/09/01 07:56:10;;;;;;;4.30;1.63;;;19.50;99.90;;;;;;5045634;28;20181;-72
2023/09/01 07:58:36;;;;;;;2.88;1.52;;;19.60;99.90;;;;;;5050013;28;20209;-68
2023/09/01 08:01:01;;;;;;;2.00;1.80;;;19.50;99.90;;;;;;5042289;28;20202;-66
2023/09/01 08:03:27;;;;;;;2.70;1.63;;;19.70;99.90;;;;;;5045395;28;20190;-66
2023/09/01 08:05:52;;;;;;;2.53;1.53;;;20.00;99.90;;;;;;5047750;28;20201;-66
2023/09/01 08:08:18;;;;;;;1.70;1.57;;;20.30;99.90;;;;;;5047518;28;20212;-66
2023/09/01 08:10:43;;;;;;;2.10;1.67;;;20.20;99.90;;;;;;5042812;28;20185;-69
2023/09/01 08:13:09;;;;;;;3.23;1.60;;;20.90;99.90;;;;;;5045095;28;20194;-69
2023/09/01 08:15:35;;;;;;;1.40;1.30;;;21.10;99.90;;;;;;5046705;28;20650;-69
2023/09/01 08:18:00;;;;;;;3.03;1.40;;;21.10;99.90;;;;;;5043306;28;20292;-66
2023/09/01 08:20:26;;;;;;;2.13;1.63;;;21.10;99.90;;;;;;5043031;28;20229;-71
2023/09/01 08:22:52;;;;;;;4.23;2.00;;;21.20;99.90;;;;;;5045560;28;20177;-70
2023/09/01 08:25:18;;;;;;;5.23;1.73;;;21.30;99.90;;;;;;5045521;28;20271;-70
2023/09/01 08:27:44;;;;;;;1.70;1.38;;;21.40;99.90;;;;;;5047644;28;20205;-69
2023/09/01 08:30:10;;;;;;;1.90;1.57;;;21.70;99.90;;;;;;5046682;28;20195;-67
2023/09/01 08:32:39;;;;;;;1.20;1.10;;;22.00;99.90;;;;;;5041883;28;20440;-67
2023/09/01 08:35:05;;;;;;;2.20;2.00;;;21.40;99.90;;;;;;5047690;28;20439;-67
2023/09/01 08:37:30;;;;;;;1.20;1.10;;;22.70;99.90;;;;;;5045487;28;20479;-66
2023/09/01 08:39:56;;;;;;;1.10;1.00;;;23.20;99.90;;;;;;5047032;28;20189;-67
2023/09/01 08:42:22;;;;;;;1.10;0.87;;;23.30;99.90;;;;;;5043113;28;20217;-70
2023/09/01 08:44:49;;;;;;;1.27;1.00;;;23.70;99.90;;;;;;5048012;28;20182;-70
2023/09/01 08:47:22;;;;;;;2.93;1.00;;;23.90;99.90;;;;;;5047127;28;20999;-71
2023/09/01 08:49:51;;;;;;;2.20;1.40;;;23.90;99.90;;;;;;5045525;28;20816;-72
2023/09/01 08:52:18;;;;;;;1.07;0.97;;;23.70;99.90;;;;;;5045862;28;20436;-68
2023/09/01 08:54:46;;;;;;;0.80;0.80;;;23.60;99.90;;;;;;5048450;28;20431;-72
2023/09/01 08:57:12;;;;;;;1.27;0.90;;;23.90;99.90;;;;;;5043898;28;20471;-72
2023/09/01 08:59:38;;;;;;;1.17;1.00;;;24.20;99.90;;;;;;5044170;28;20455;-70
2023/09/01 09:02:07;;;;;;;1.00;0.90;;;24.20;99.90;;;;;;5044626;28;20440;-72
2023/09/01 09:04:34;;;;;;;1.47;0.90;;;24.40;99.90;;;;;;5046744;28;20277;-68
2023/09/01 09:07:17;;;;;;;0.80;0.70;;;24.70;99.90;;;;;;5036933;28;22031;-71
2023/09/01 09:09:57;;;;;;;1.77;1.40;;;24.90;99.90;;;;;;5049548;28;20479;-68
2023/09/01 09:12:33;;;;;;;1.07;0.97;;;24.80;99.90;;;;;;5042510;28;20556;-73
2023/09/01 09:14:59;;;;;;;1.87;1.13;;;25.00;99.90;;;;;;5059208;28;20852;-73
2023/09/01 09:17:40;;;;;;;2.60;2.40;;;25.00;99.90;;;;;;5046550;28;20547;-69
2023/09/01 09:20:06;;;;;;;1.30;1.20;;;24.90;99.90;;;;;;5042971;28;20437;-70
2023/09/01 09:22:48;;;;;;;1.30;1.20;;;24.80;99.90;;;;;;5045633;28;20525;-73
2023/09/01 09:25:28;;;;;;;1.13;0.90;;;24.70;99.90;;;;;;5043929;28;20447;-68
2023/09/01 09:27:56;;;;;;;1.50;1.40;;;24.80;99.90;;;;;;5043793;28;20468;-69
2023/09/01 09:30:23;;;;;;;1.37;1.27;;;25.10;99.90;;;;;;5044562;28;21106;-69
2023/09/01 09:33:03;;;;;;;2.03;1.83;;;25.00;99.90;;;;;;5042927;28;20533;-69
2023/09/01 09:35:29;;;;;;;1.70;1.40;;;25.00;99.90;;;;;;5043142;28;20470;-70
2023/09/01 09:37:59;;;;;;;1.83;1.50;;;24.90;99.90;;;;;;5043101;28;20998;-72
2023/09/01 09:40:24;;;;;;;1.90;1.23;;;24.70;99.90;;;;;;5072314;28;20964;-77
2023/09/01 09:42:50;;;;;;;1.30;1.20;;;24.70;99.90;;;;;;5047020;28;20452;-77
2023/09/01 09:45:29;;;;;;;1.53;1.43;;;24.60;99.90;;;;;;5045057;28;20211;-73
2023/09/01 09:47:57;;;;;;;1.43;1.33;;;24.40;99.90;;;;;;5046020;28;20201;-73
2023/09/01 09:50:24;;;;;;;1.60;1.40;;;24.20;99.90;;;;;;5046343;28;20535;-73
2023/09/01 09:53:02;;;;;;;1.20;1.10;;;24.10;99.90;;;;;;5045928;28;20459;-71
2023/09/01 09:55:30;;;;;;;1.70;1.30;;;23.90;99.90;;;;;;5040608;28;20527;-75
2023/09/01 09:58:07;;;;;;;1.40;1.30;;;23.80;99.90;;;;;;5044522;28;20494;-70
2023/09/01 10:01:02;;;;;;;2.73;1.40;;;23.50;99.90;;;;;;5043288;28;20802;-66
2023/09/01 10:03:31;;;;;;;1.70;1.60;;;23.20;99.90;;;;;;5040089;28;20433;-66
2023/09/01 10:05:58;;;;;;;1.23;1.10;;;22.90;99.90;;;;;;5041761;28;21073;-66
2023/09/01 10:08:24;;;;;;;1.30;1.20;;;22.80;99.90;;;;;;5046377;28;20468;-67
2023/09/01 10:10:50;;;;;;;1.87;1.10;;;22.70;99.90;;;;;;5039878;28;20448;-66
2023/09/01 10:13:16;;;;;;;1.70;1.60;;;22.70;99.90;;;;;;5046995;28;20817;-66
2023/09/01 10:15:42;;;;;;;2.23;1.53;;;22.70;99.90;;;;;;5046727;28;20705;-68
2023/09/01 10:18:09;;;;;;;1.80;1.40;;;22.60;99.90;;;;;;5046199;28;20572;-67
2023/09/01 10:20:42;;;;;;;1.70;1.37;;;22.60;99.90;;;;;;5042563;28;20458;-68
2023/09/01 10:23:09;;;;;;;3.33;1.50;;;22.80;99.90;;;;;;5042838;28;20435;-70
2023/09/01 10:25:34;;;;;;;1.83;1.70;;;22.90;99.90;;;;;;5045322;28;20519;-66
2023/09/01 10:28:12;;;;;;;2.77;1.50;;;22.80;99.90;;;;;;5044714;28;20586;-68
2023/09/01 10:30:42;;;;;;;1.97;1.30;;;22.80;99.90;;;;;;5043682;28;20552;-71
2023/09/01 10:33:16;;;;;;;1.37;1.20;;;22.90;99.90;;;;;;5042411;28;20444;-73
2023/09/01 10:35:42;;;;;;;2.13;1.40;;;22.80;99.90;;;;;;5045368;28;21146;-73
2023/09/01 10:38:18;;;;;;;2.30;1.60;;;22.90;99.90;;;;;;5044000;28;20498;-74
2023/09/01 10:40:45;;;;;;;1.60;1.50;;;22.90;99.90;;;;;;5051712;28;20177;-74
2023/09/01 10:43:11;;;;;;;3.57;1.50;;;23.10;99.90;;;;;;5048877;28;20442;-75
2023/09/01 10:45:38;;;;;;;2.23;2.00;;;23.00;99.90;;;;;;5049962;28;20473;-71
2023/09/01 10:48:04;;;;;;;2.77;1.60;;;23.00;99.90;;;;;;5047813;28;20457;-69
2023/09/01 10:50:34;;;;;;;1.53;1.43;;;23.10;99.90;;;;;;5050570;28;20851;-68
2023/09/01 10:53:30;;;;;;;1.83;1.20;;;23.20;99.90;;;;;;5044358;28;20436;-71
2023/09/01 10:56:26;;;;;;;3.10;2.30;;;23.40;99.90;;;;;;5047553;28;20448;-67
2023/09/01 10:58:56;;;;;;;2.37;1.50;;;23.30;99.90;;;;;;5028409;28;20482;-74
2023/09/01 11:01:30;;;;;;;2.60;1.80;;;23.50;99.90;;;;;;5050909;28;20853;-71
2023/09/01 11:04:16;;;;;;;1.70;1.60;;;23.50;99.90;;;;;;5050658;28;20880;-71
2023/09/01 11:06:57;;;;;;;1.50;1.40;;;23.50;99.90;;;;;;5050022;28;20448;-72
2023/09/01 11:09:32;;;;;;;3.50;1.70;;;23.80;99.90;;;;;;5048710;28;20439;-71
2023/09/01 11:11:59;;;;;;;2.17;1.70;;;23.80;99.90;;;;;;5043634;28;20847;-73
2023/09/01 11:14:24;;;;;;;1.50;1.40;;;24.00;99.90;;;;;;5049573;28;20861;-73
2023/09/01 11:16:50;;;;;;;1.77;1.43;;;24.30;99.90;;;;;;5044950;28;20471;-72
2023/09/01 11:19:16;;;;;;;1.40;1.30;;;24.40;99.90;;;;;;5049694;28;20178;-72
2023/09/01 11:21:41;;;;;;;2.07;1.87;;;24.40;99.90;;;;;;5037063;28;20182;-74
2023/09/01 11:24:07;;;;;;;2.10;1.90;;;24.50;99.90;;;;;;5050776;28;20188;-72
2023/09/01 11:26:37;;;;;;;1.47;1.37;;;24.70;99.90;;;;;;5047865;28;20184;-72
2023/09/01 11:29:06;;;;;;;2.57;1.60;;;24.60;99.90;;;;;;5050127;28;20447;-72
2023/09/01 11:31:39;;;;;;;2.63;2.00;;;24.60;99.90;;;;;;5045519;28;20476;-74
2023/09/01 11:34:05;;;;;;;1.60;1.50;;;24.70;99.90;;;;;;5051832;28;20448;-72
2023/09/01 11:36:34;;;;;;;1.60;1.50;;;24.70;99.90;;;;;;5049581;28;20989;-71
2023/09/01 11:39:00;;;;;;;2.60;1.00;;;25.00;99.90;;;;;;5047833;28;20442;-72
2023/09/01 11:41:27;;;;;;;2.80;1.47;;;24.40;99.40;;;;;;5047049;28;20439;-74
2023/09/01 11:43:54;;;;;;;1.50;1.40;;;24.40;99.40;;;;;;5049948;28;21276;-71
2023/09/01 11:46:33;;;;;;;1.50;1.40;;;24.20;99.70;;;;;;5053130;28;20448;-74
2023/09/01 11:49:00;;;;;;;1.50;1.40;;;24.20;99.30;;;;;;5047076;28;20904;-73
2023/09/01 11:51:40;;;;;;;1.63;1.30;;;24.40;99.60;;;;;;5044498;28;21320;-72
2023/09/01 11:54:06;;;;;;;1.87;1.20;;;23.60;99.60;;;;;;5045761;28;20484;-67
2023/09/01 11:56:31;;;;;;;1.83;1.20;;;24.20;99.60;;;;;;5044174;28;20863;-68
2023/09/01 11:58:59;;;;;;;1.27;1.17;;;24.40;99.30;;;;;;5047458;28;20460;-70
2023/09/01 12:01:32;;;;;;;2.40;1.10;;;24.50;98.70;;;;;;5039635;28;20244;-71
2023/09/01 12:04:08;;;;;;;1.33;1.23;;;24.50;98.10;;;;;;5046810;28;20455;-70
2023/09/01 12:06:46;;;;;;;1.50;1.40;;;24.50;97.60;;;;;;5043734;28;21051;-69
2023/09/01 12:09:21;;;;;;;1.30;1.20;;;24.70;98.00;;;;;;5047645;28;20448;-69
2023/09/01 12:12:00;;;;;;;4.43;1.30;;;24.70;97.80;;;;;;5045590;28;20516;-70
2023/09/01 12:14:30;;;;;;;1.67;1.10;;;24.90;97.30;;;;;;5045419;28;20987;-71
2023/09/01 12:16:57;;;;;;;2.03;1.20;;;24.90;97.20;;;;;;5049624;28;20481;-71
2023/09/01 12:19:24;;;;;;;2.20;1.53;;;24.90;97.80;;;;;;5047114;28;20436;-72
2023/09/01 12:21:51;;;;;;;1.37;1.27;;;25.00;97.20;;;;;;5049088;28;20530;-73
2023/09/01 12:24:16;;;;;;;2.67;1.33;;;25.00;96.90;;;;;;5054130;28;20517;-72
2023/09/01 12:26:42;;;;;;;1.43;1.33;;;25.00;96.60;;;;;;5043318;28;20441;-74
2023/09/01 12:29:08;;;;;;;2.53;1.30;;;25.00;95.40;;;;;;5051929;28;20187;-70
2023/09/01 12:31:33;;;;;;;1.33;1.20;;;25.30;95.00;;;;;;5046553;28;20363;-71
2023/09/01 12:33:59;;;;;;;1.13;1.00;;;25.20;94.40;;;;;;5051695;28;20180;-69
2023/09/01 12:36:24;;;;;;;1.00;0.90;;;25.20;94.50;;;;;;5042628;28;20278;-68
2023/09/01 12:38:50;;;;;;;2.43;1.07;;;25.30;94.30;;;;;;5044341;28;20215;-69
2023/09/01 12:41:15;;;;;;;1.20;1.00;;;24.70;93.50;;;;;;5047740;28;20258;-70
2023/09/01 12:43:43;;;;;;;1.30;1.20;;;25.20;94.40;;;;;;5047676;28;20273;-69
2023/09/01 12:46:09;;;;;;;1.40;1.30;;;25.10;94.40;;;;;;5048629;28;20317;-70
2023/09/01 12:48:35;;;;;;;1.60;1.23;;;25.00;94.60;;;;;;5044459;28;20551;-70
2023/09/01 12:51:01;;;;;;;1.57;1.20;;;25.00;94.00;;;;;;5049714;28;20185;-69